sensor_id;sensor_type;location;lat;lon;timestamp;P1;durP1;ratioP1;P2;durP2;ratioP2
14903;SDS011;7543;53.148;8.234;2023-07-20T00:00:40;1.00;;;0.70;;
14903;SDS011;7543;53.148;8.234;2023-07-20T00:03:12;1.00;;;0.80;;
14903;SDS011;7543;53.148;8.234;2023-07-20T00:05:44;1.23;;;0.60;;
14903;SDS011;7543;53.148;8.234;2023-07-20T00:08:13;0.90;;;0.70;;
14903;SDS011;7543;53.148;8.234;2023-07-20T00:10:41;3.03;;;0.83;;
14903;SDS011;7543;53.148;8.234;2023-07-20T00:13:10;0.60;;;0.60;;
14903;SDS011;7543;53.148;8.234;2023-07-20T00:15:39;0.83;;;0.70;;
14903;SDS011;7543;53.148;8.234;2023-07-20T00:18:07;0.67;;;0.60;;
14903;SDS011;7543;53.148;8.234;2023-07-20T00:20:36;1.20;;;0.77;;
14903;SDS011;7543;53.148;8.234;2023-07-20T00:23:05;0.80;;;0.50;;
14903;SDS011;7543;53.148;8.234;2023-07-20T00:25:34;0.80;;;0.60;;
14903;SDS011;7543;53.148;8.234;2023-07-20T00:28:02;0.43;;;0.43;;
14903;SDS011;7543;53.148;8.234;2023-07-20T00:30:31;0.70;;;0.70;;
14903;SDS011;7543;53.148;8.234;2023-07-20T00:32:59;0.60;;;0.60;;
14903;SDS011;7543;53.148;8.234;2023-07-20T00:35:27;0.70;;;0.70;;
14903;SDS011;7543;53.148;8.234;2023-07-20T00:37:55;1.50;;;0.77;;
14903;SDS011;7543;53.148;8.234;2023-07-20T00:40:25;0.90;;;0.80;;
14903;SDS011;7543;53.148;8.234;2023-07-20T00:42:53;1.20;;;0.90;;
14903;SDS011;7543;53.148;8.234;2023-07-20T00:45:24;0.90;;;0.77;;
14903;SDS011;7543;53.148;8.234;2023-07-20T00:47:53;0.80;;;0.80;;
14903;SDS011;7543;53.148;8.234;2023-07-20T00:50:22;1.13;;;0.73;;
14903;SDS011;7543;53.148;8.234;2023-07-20T00:52:50;0.97;;;0.80;;
14903;SDS011;7543;53.148;8.234;2023-07-20T00:55:19;1.27;;;0.90;;
14903;SDS011;7543;53.148;8.234;2023-07-20T00:57:49;1.03;;;0.83;;
14903;SDS011;7543;53.148;8.234;2023-07-20T01:00:17;1.13;;;0.90;;
14903;SDS011;7543;53.148;8.234;2023-07-20T01:02:46;1.20;;;0.80;;
14903;SDS011;7543;53.148;8.234;2023-07-20T01:05:14;1.20;;;0.93;;
14903;SDS011;7543;53.148;8.234;2023-07-20T01:07:46;1.80;;;1.23;;
14903;SDS011;7543;53.148;8.234;2023-07-20T01:10:23;1.23;;;1.00;;
14903;SDS011;7543;53.148;8.234;2023-07-20T01:12:56;1.63;;;1.00;;
14903;SDS011;7543;53.148;8.234;2023-07-20T01:15:25;1.23;;;0.93;;
14903;SDS011;7543;53.148;8.234;2023-07-20T01:17:53;1.63;;;1.27;;
14903;SDS011;7543;53.148;8.234;2023-07-20T01:20:22;2.03;;;0.90;;
14903;SDS011;7543;53.148;8.234;2023-07-20T01:23:00;1.10;;;1.00;;
14903;SDS011;7543;53.148;8.234;2023-07-20T01:25:52;1.10;;;0.90;;
14903;SDS011;7543;53.148;8.234;2023-07-20T01:28:39;0.97;;;0.83;;
14903;SDS011;7543;53.148;8.234;2023-07-20T01:31:30;3.90;;;0.90;;
14903;SDS011;7543;53.148;8.234;2023-07-20T01:34:00;0.60;;;0.60;;
14903;SDS011;7543;53.148;8.234;2023-07-20T01:36:31;0.97;;;0.80;;
14903;SDS011;7543;53.148;8.234;2023-07-20T01:39:02;1.17;;;0.97;;
14903;SDS011;7543;53.148;8.234;2023-07-20T01:41:31;1.50;;;0.90;;
14903;SDS011;7543;53.148;8.234;2023-07-20T01:44:00;0.87;;;0.80;;
14903;SDS011;7543;53.148;8.234;2023-07-20T01:46:30;2.50;;;1.00;;
14903;SDS011;7543;53.148;8.234;2023-07-20T01:48:59;0.73;;;0.73;;
14903;SDS011;7543;53.148;8.234;2023-07-20T01:51:27;2.67;;;0.90;;
14903;SDS011;7543;53.148;8.234;2023-07-20T01:53:55;1.17;;;0.90;;
14903;SDS011;7543;53.148;8.234;2023-07-20T01:56:24;0.83;;;0.73;;
14903;SDS011;7543;53.148;8.234;2023-07-20T01:58:52;1.60;;;1.03;;
14903;SDS011;7543;53.148;8.234;2023-07-20T02:01:20;1.53;;;0.70;;
14903;SDS011;7543;53.148;8.234;2023-07-20T02:03:52;0.70;;;0.70;;
14903;SDS011;7543;53.148;8.234;2023-07-20T02:06:21;1.00;;;0.90;;
14903;SDS011;7543;53.148;8.234;2023-07-20T02:08:49;2.90;;;0.90;;
14903;SDS011;7543;53.148;8.234;2023-07-20T02:11:17;0.90;;;0.90;;
14903;SDS011;7543;53.148;8.234;2023-07-20T02:13:46;1.00;;;0.90;;
14903;SDS011;7543;53.148;8.234;2023-07-20T02:16:14;1.30;;;0.90;;
14903;SDS011;7543;53.148;8.234;2023-07-20T02:18:42;1.60;;;0.90;;
14903;SDS011;7543;53.148;8.234;2023-07-20T02:21:13;2.07;;;1.23;;
14903;SDS011;7543;53.148;8.234;2023-07-20T02:23:42;1.43;;;1.20;;
14903;SDS011;7543;53.148;8.234;2023-07-20T02:26:10;1.57;;;1.30;;
14903;SDS011;7543;53.148;8.234;2023-07-20T02:28:38;1.77;;;1.20;;
14903;SDS011;7543;53.148;8.234;2023-07-20T02:31:07;1.27;;;1.17;;
14903;SDS011;7543;53.148;8.234;2023-07-20T02:33:36;1.80;;;1.40;;
14903;SDS011;7543;53.148;8.234;2023-07-20T02:36:04;1.30;;;1.17;;
14903;SDS011;7543;53.148;8.234;2023-07-20T02:38:34;1.53;;;1.30;;
14903;SDS011;7543;53.148;8.234;2023-07-20T02:41:02;1.60;;;1.20;;
14903;SDS011;7543;53.148;8.234;2023-07-20T02:43:30;1.40;;;1.27;;
14903;SDS011;7543;53.148;8.234;2023-07-20T02:45:59;1.53;;;1.40;;
14903;SDS011;7543;53.148;8.234;2023-07-20T02:48:27;1.43;;;1.10;;
14903;SDS011;7543;53.148;8.234;2023-07-20T02:50:56;2.13;;;1.40;;
14903;SDS011;7543;53.148;8.234;2023-07-20T02:53:24;1.97;;;1.60;;
14903;SDS011;7543;53.148;8.234;2023-07-20T02:55:54;2.83;;;1.60;;
14903;SDS011;7543;53.148;8.234;2023-07-20T02:58:22;1.73;;;1.60;;
14903;SDS011;7543;53.148;8.234;2023-07-20T03:00:51;1.90;;;1.70;;
14903;SDS011;7543;53.148;8.234;2023-07-20T03:03:19;2.67;;;1.70;;
14903;SDS011;7543;53.148;8.234;2023-07-20T03:05:47;3.07;;;2.07;;
14903;SDS011;7543;53.148;8.234;2023-07-20T03:08:21;2.40;;;1.80;;
14903;SDS011;7543;53.148;8.234;2023-07-20T03:10:49;2.00;;;1.70;;
14903;SDS011;7543;53.148;8.234;2023-07-20T03:13:19;1.97;;;1.77;;
14903;SDS011;7543;53.148;8.234;2023-07-20T03:15:47;2.33;;;1.90;;
14903;SDS011;7543;53.148;8.234;2023-07-20T03:18:15;1.93;;;1.63;;
14903;SDS011;7543;53.148;8.234;2023-07-20T03:20:44;3.13;;;1.97;;
14903;SDS011;7543;53.148;8.234;2023-07-20T03:23:13;2.17;;;1.97;;
14903;SDS011;7543;53.148;8.234;2023-07-20T03:25:41;2.27;;;1.90;;
14903;SDS011;7543;53.148;8.234;2023-07-20T03:28:10;1.87;;;1.67;;
14903;SDS011;7543;53.148;8.234;2023-07-20T03:30:39;2.57;;;2.00;;
14903;SDS011;7543;53.148;8.234;2023-07-20T03:33:09;2.10;;;1.87;;
14903;SDS011;7543;53.148;8.234;2023-07-20T03:35:37;2.13;;;1.83;;
14903;SDS011;7543;53.148;8.234;2023-07-20T03:38:05;2.47;;;2.00;;
14903;SDS011;7543;53.148;8.234;2023-07-20T03:40:34;2.43;;;2.00;;
14903;SDS011;7543;53.148;8.234;2023-07-20T03:43:02;2.60;;;1.93;;
14903;SDS011;7543;53.148;8.234;2023-07-20T03:45:30;4.83;;;2.03;;
14903;SDS011;7543;53.148;8.234;2023-07-20T03:48:00;3.30;;;1.90;;
14903;SDS011;7543;53.148;8.234;2023-07-20T03:50:29;2.57;;;1.83;;
14903;SDS011;7543;53.148;8.234;2023-07-20T03:52:57;2.37;;;1.90;;
14903;SDS011;7543;53.148;8.234;2023-07-20T03:55:26;1.60;;;1.50;;
14903;SDS011;7543;53.148;8.234;2023-07-20T03:57:54;2.33;;;2.10;;
14903;SDS011;7543;53.148;8.234;2023-07-20T04:00:23;2.83;;;1.90;;
14903;SDS011;7543;53.148;8.234;2023-07-20T04:02:51;2.83;;;1.90;;
14903;SDS011;7543;53.148;8.234;2023-07-20T04:05:21;2.57;;;1.80;;
14903;SDS011;7543;53.148;8.234;2023-07-20T04:07:49;5.00;;;1.80;;
14903;SDS011;7543;53.148;8.234;2023-07-20T04:10:18;3.57;;;1.97;;
14903;SDS011;7543;53.148;8.234;2023-07-20T04:12:46;2.47;;;1.90;;
14903;SDS011;7543;53.148;8.234;2023-07-20T04:15:14;8.70;;;1.87;;
14903;SDS011;7543;53.148;8.234;2023-07-20T04:17:44;2.93;;;1.60;;
14903;SDS011;7543;53.148;8.234;2023-07-20T04:20:12;3.73;;;1.63;;
14903;SDS011;7543;53.148;8.234;2023-07-20T04:22:42;2.77;;;1.90;;
14903;SDS011;7543;53.148;8.234;2023-07-20T04:25:13;2.93;;;1.77;;
14903;SDS011;7543;53.148;8.234;2023-07-20T04:27:42;1.90;;;1.60;;
14903;SDS011;7543;53.148;8.234;2023-07-20T04:30:10;1.90;;;1.70;;
14903;SDS011;7543;53.148;8.234;2023-07-20T04:32:39;2.20;;;1.70;;
14903;SDS011;7543;53.148;8.234;2023-07-20T04:35:16;2.20;;;2.00;;
14903;SDS011;7543;53.148;8.234;2023-07-20T04:37:48;1.80;;;1.70;;
14903;SDS011;7543;53.148;8.234;2023-07-20T04:40:19;2.73;;;1.80;;
14903;SDS011;7543;53.148;8.234;2023-07-20T04:42:47;1.97;;;1.70;;
14903;SDS011;7543;53.148;8.234;2023-07-20T04:45:15;3.60;;;1.80;;
14903;SDS011;7543;53.148;8.234;2023-07-20T04:47:45;1.90;;;1.70;;
14903;SDS011;7543;53.148;8.234;2023-07-20T04:50:14;2.00;;;1.70;;
14903;SDS011;7543;53.148;8.234;2023-07-20T04:52:42;3.63;;;1.97;;
14903;SDS011;7543;53.148;8.234;2023-07-20T04:55:18;2.57;;;1.50;;
14903;SDS011;7543;53.148;8.234;2023-07-20T04:57:46;2.07;;;1.83;;
14903;SDS011;7543;53.148;8.234;2023-07-20T05:00:16;2.50;;;1.70;;
14903;SDS011;7543;53.148;8.234;2023-07-20T05:02:46;3.43;;;1.70;;
14903;SDS011;7543;53.148;8.234;2023-07-20T05:05:15;3.27;;;1.90;;
14903;SDS011;7543;53.148;8.234;2023-07-20T05:07:44;2.93;;;2.03;;
14903;SDS011;7543;53.148;8.234;2023-07-20T05:10:12;3.10;;;2.00;;
14903;SDS011;7543;53.148;8.234;2023-07-20T05:12:42;1.60;;;1.43;;
14903;SDS011;7543;53.148;8.234;2023-07-20T05:15:10;3.27;;;1.60;;
14903;SDS011;7543;53.148;8.234;2023-07-20T05:17:40;2.10;;;1.77;;
14903;SDS011;7543;53.148;8.234;2023-07-20T05:20:09;3.03;;;1.50;;
14903;SDS011;7543;53.148;8.234;2023-07-20T05:22:39;3.33;;;1.50;;
14903;SDS011;7543;53.148;8.234;2023-07-20T05:25:07;10.07;;;1.70;;
14903;SDS011;7543;53.148;8.234;2023-07-20T05:27:37;2.93;;;1.47;;
14903;SDS011;7543;53.148;8.234;2023-07-20T05:30:07;1.47;;;1.20;;
14903;SDS011;7543;53.148;8.234;2023-07-20T05:32:36;1.43;;;1.07;;
14903;SDS011;7543;53.148;8.234;2023-07-20T05:35:05;1.43;;;1.20;;
14903;SDS011;7543;53.148;8.234;2023-07-20T05:37:35;2.37;;;1.60;;
14903;SDS011;7543;53.148;8.234;2023-07-20T05:40:04;1.67;;;1.03;;
14903;SDS011;7543;53.148;8.234;2023-07-20T05:42:34;1.20;;;1.10;;
14903;SDS011;7543;53.148;8.234;2023-07-20T05:45:03;1.90;;;1.20;;
14903;SDS011;7543;53.148;8.234;2023-07-20T05:47:33;1.43;;;1.30;;
14903;SDS011;7543;53.148;8.234;2023-07-20T05:50:01;1.13;;;1.00;;
14903;SDS011;7543;53.148;8.234;2023-07-20T05:52:30;0.80;;;0.80;;
14903;SDS011;7543;53.148;8.234;2023-07-20T05:54:58;1.83;;;1.10;;
14903;SDS011;7543;53.148;8.234;2023-07-20T05:57:27;1.13;;;0.97;;
14903;SDS011;7543;53.148;8.234;2023-07-20T05:59:55;2.43;;;1.10;;
14903;SDS011;7543;53.148;8.234;2023-07-20T06:02:23;1.10;;;1.00;;
14903;SDS011;7543;53.148;8.234;2023-07-20T06:04:53;1.93;;;1.00;;
14903;SDS011;7543;53.148;8.234;2023-07-20T06:07:22;3.97;;;1.03;;
14903;SDS011;7543;53.148;8.234;2023-07-20T06:09:51;1.70;;;1.20;;
14903;SDS011;7543;53.148;8.234;2023-07-20T06:12:19;2.33;;;1.17;;
14903;SDS011;7543;53.148;8.234;2023-07-20T06:14:47;1.13;;;0.97;;
14903;SDS011;7543;53.148;8.234;2023-07-20T06:17:16;3.13;;;1.30;;
14903;SDS011;7543;53.148;8.234;2023-07-20T06:19:44;2.17;;;1.43;;
14903;SDS011;7543;53.148;8.234;2023-07-20T06:22:14;0.90;;;0.87;;
14903;SDS011;7543;53.148;8.234;2023-07-20T06:24:43;3.93;;;0.90;;
14903;SDS011;7543;53.148;8.234;2023-07-20T06:27:11;2.53;;;1.00;;
14903;SDS011;7543;53.148;8.234;2023-07-20T06:29:39;2.33;;;1.00;;
14903;SDS011;7543;53.148;8.234;2023-07-20T06:32:08;0.90;;;0.80;;
14903;SDS011;7543;53.148;8.234;2023-07-20T06:34:36;0.80;;;0.70;;
14903;SDS011;7543;53.148;8.234;2023-07-20T06:37:05;1.43;;;0.80;;
14903;SDS011;7543;53.148;8.234;2023-07-20T06:39:34;1.20;;;0.80;;
14903;SDS011;7543;53.148;8.234;2023-07-20T06:42:03;3.67;;;0.83;;
14903;SDS011;7543;53.148;8.234;2023-07-20T06:44:32;1.37;;;0.80;;
14903;SDS011;7543;53.148;8.234;2023-07-20T06:47:00;0.53;;;0.53;;
14903;SDS011;7543;53.148;8.234;2023-07-20T06:49:29;2.27;;;0.87;;
14903;SDS011;7543;53.148;8.234;2023-07-20T06:51:57;1.40;;;0.90;;
14903;SDS011;7543;53.148;8.234;2023-07-20T06:54:25;2.30;;;0.90;;
14903;SDS011;7543;53.148;8.234;2023-07-20T06:56:55;2.10;;;0.87;;
14903;SDS011;7543;53.148;8.234;2023-07-20T06:59:23;1.47;;;0.70;;
14903;SDS011;7543;53.148;8.234;2023-07-20T07:01:52;1.07;;;0.70;;
14903;SDS011;7543;53.148;8.234;2023-07-20T07:04:20;1.17;;;0.80;;
14903;SDS011;7543;53.148;8.234;2023-07-20T07:06:48;1.30;;;0.73;;
14903;SDS011;7543;53.148;8.234;2023-07-20T07:09:16;1.60;;;0.83;;
14903;SDS011;7543;53.148;8.234;2023-07-20T07:11:45;0.80;;;0.60;;
14903;SDS011;7543;53.148;8.234;2023-07-20T07:14:15;1.67;;;0.70;;
14903;SDS011;7543;53.148;8.234;2023-07-20T07:16:44;4.93;;;0.97;;
14903;SDS011;7543;53.148;8.234;2023-07-20T07:19:12;2.73;;;1.20;;
14903;SDS011;7543;53.148;8.234;2023-07-20T07:21:40;2.27;;;0.80;;
14903;SDS011;7543;53.148;8.234;2023-07-20T07:24:09;1.70;;;0.70;;
14903;SDS011;7543;53.148;8.234;2023-07-20T07:26:37;2.17;;;0.60;;
14903;SDS011;7543;53.148;8.234;2023-07-20T07:29:05;0.80;;;0.67;;
14903;SDS011;7543;53.148;8.234;2023-07-20T07:31:35;2.00;;;0.87;;
14903;SDS011;7543;53.148;8.234;2023-07-20T07:34:05;1.50;;;0.83;;
14903;SDS011;7543;53.148;8.234;2023-07-20T07:36:34;3.13;;;0.83;;
14903;SDS011;7543;53.148;8.234;2023-07-20T07:39:02;0.90;;;0.70;;
14903;SDS011;7543;53.148;8.234;2023-07-20T07:41:31;1.03;;;0.70;;
14903;SDS011;7543;53.148;8.234;2023-07-20T07:43:59;0.97;;;0.60;;
14903;SDS011;7543;53.148;8.234;2023-07-20T07:46:27;1.77;;;0.70;;
14903;SDS011;7543;53.148;8.234;2023-07-20T07:48:57;1.00;;;0.60;;
14903;SDS011;7543;53.148;8.234;2023-07-20T07:51:25;4.10;;;0.70;;
14903;SDS011;7543;53.148;8.234;2023-07-20T07:53:54;1.67;;;0.77;;
14903;SDS011;7543;53.148;8.234;2023-07-20T07:56:23;1.90;;;0.90;;
14903;SDS011;7543;53.148;8.234;2023-07-20T07:58:51;0.93;;;0.60;;
14903;SDS011;7543;53.148;8.234;2023-07-20T08:01:20;3.43;;;0.90;;
14903;SDS011;7543;53.148;8.234;2023-07-20T08:03:48;1.13;;;0.80;;
14903;SDS011;7543;53.148;8.234;2023-07-20T08:06:19;1.27;;;0.63;;
14903;SDS011;7543;53.148;8.234;2023-07-20T08:08:47;1.97;;;0.77;;
14903;SDS011;7543;53.148;8.234;2023-07-20T08:11:16;0.73;;;0.60;;
14903;SDS011;7543;53.148;8.234;2023-07-20T08:13:45;2.57;;;1.10;;
14903;SDS011;7543;53.148;8.234;2023-07-20T08:16:13;1.67;;;0.80;;
14903;SDS011;7543;53.148;8.234;2023-07-20T08:18:41;1.10;;;0.70;;
14903;SDS011;7543;53.148;8.234;2023-07-20T08:21:10;1.90;;;0.90;;
14903;SDS011;7543;53.148;8.234;2023-07-20T08:23:40;1.07;;;0.80;;
14903;SDS011;7543;53.148;8.234;2023-07-20T08:26:08;1.17;;;0.90;;
14903;SDS011;7543;53.148;8.234;2023-07-20T08:28:36;1.87;;;1.00;;
14903;SDS011;7543;53.148;8.234;2023-07-20T08:31:05;1.43;;;1.10;;
14903;SDS011;7543;53.148;8.234;2023-07-20T08:33:34;2.80;;;1.00;;
14903;SDS011;7543;53.148;8.234;2023-07-20T08:36:02;2.00;;;1.10;;
14903;SDS011;7543;53.148;8.234;2023-07-20T08:38:30;1.80;;;0.90;;
14903;SDS011;7543;53.148;8.234;2023-07-20T08:41:00;3.23;;;1.00;;
14903;SDS011;7543;53.148;8.234;2023-07-20T08:43:28;2.20;;;1.00;;
14903;SDS011;7543;53.148;8.234;2023-07-20T08:45:58;2.10;;;1.20;;
14903;SDS011;7543;53.148;8.234;2023-07-20T08:48:27;1.47;;;1.13;;
14903;SDS011;7543;53.148;8.234;2023-07-20T08:50:55;1.17;;;0.80;;
14903;SDS011;7543;53.148;8.234;2023-07-20T08:53:24;2.00;;;1.20;;
14903;SDS011;7543;53.148;8.234;2023-07-20T08:55:52;1.50;;;1.00;;
14903;SDS011;7543;53.148;8.234;2023-07-20T08:58:22;2.00;;;1.17;;
14903;SDS011;7543;53.148;8.234;2023-07-20T09:00:53;1.80;;;1.00;;
14903;SDS011;7543;53.148;8.234;2023-07-20T09:03:22;3.93;;;1.40;;
14903;SDS011;7543;53.148;8.234;2023-07-20T09:05:50;2.50;;;1.10;;
14903;SDS011;7543;53.148;8.234;2023-07-20T09:08:19;3.07;;;1.03;;
14903;SDS011;7543;53.148;8.234;2023-07-20T09:10:47;1.83;;;1.07;;
14903;SDS011;7543;53.148;8.234;2023-07-20T09:13:15;1.77;;;1.00;;
14903;SDS011;7543;53.148;8.234;2023-07-20T09:15:49;2.70;;;1.10;;
14903;SDS011;7543;53.148;8.234;2023-07-20T09:18:24;1.80;;;1.07;;
14903;SDS011;7543;53.148;8.234;2023-07-20T09:20:57;1.57;;;1.00;;
14903;SDS011;7543;53.148;8.234;2023-07-20T09:23:31;1.53;;;1.03;;
14903;SDS011;7543;53.148;8.234;2023-07-20T09:26:01;6.40;;;1.40;;
14903;SDS011;7543;53.148;8.234;2023-07-20T09:28:41;1.10;;;1.00;;
14903;SDS011;7543;53.148;8.234;2023-07-20T09:31:16;5.10;;;1.37;;
14903;SDS011;7543;53.148;8.234;2023-07-20T09:33:45;3.47;;;1.30;;
14903;SDS011;7543;53.148;8.234;2023-07-20T09:36:13;1.50;;;1.20;;
14903;SDS011;7543;53.148;8.234;2023-07-20T09:38:42;3.97;;;1.43;;
14903;SDS011;7543;53.148;8.234;2023-07-20T09:41:12;3.93;;;1.17;;
14903;SDS011;7543;53.148;8.234;2023-07-20T09:43:41;2.63;;;1.30;;
14903;SDS011;7543;53.148;8.234;2023-07-20T09:46:10;2.53;;;1.40;;
14903;SDS011;7543;53.148;8.234;2023-07-20T09:48:40;2.83;;;1.33;;
14903;SDS011;7543;53.148;8.234;2023-07-20T09:51:08;4.53;;;1.33;;
14903;SDS011;7543;53.148;8.234;2023-07-20T09:53:36;2.63;;;1.40;;
14903;SDS011;7543;53.148;8.234;2023-07-20T09:56:05;2.20;;;1.20;;
14903;SDS011;7543;53.148;8.234;2023-07-20T09:58:34;2.33;;;1.43;;
14903;SDS011;7543;53.148;8.234;2023-07-20T10:01:05;3.47;;;1.20;;
14903;SDS011;7543;53.148;8.234;2023-07-20T10:03:34;2.73;;;1.43;;
14903;SDS011;7543;53.148;8.234;2023-07-20T10:06:06;2.63;;;1.30;;
14903;SDS011;7543;53.148;8.234;2023-07-20T10:08:38;4.60;;;1.00;;
14903;SDS011;7543;53.148;8.234;2023-07-20T10:11:10;3.23;;;1.67;;
14903;SDS011;7543;53.148;8.234;2023-07-20T10:13:40;3.50;;;1.17;;
14903;SDS011;7543;53.148;8.234;2023-07-20T10:16:09;1.50;;;1.00;;
14903;SDS011;7543;53.148;8.234;2023-07-20T10:18:41;3.47;;;1.10;;
14903;SDS011;7543;53.148;8.234;2023-07-20T10:21:13;2.57;;;1.20;;
14903;SDS011;7543;53.148;8.234;2023-07-20T10:23:45;1.77;;;1.10;;
14903;SDS011;7543;53.148;8.234;2023-07-20T10:26:14;2.83;;;1.00;;
14903;SDS011;7543;53.148;8.234;2023-07-20T10:28:42;1.97;;;1.03;;
14903;SDS011;7543;53.148;8.234;2023-07-20T10:31:12;4.43;;;1.17;;
14903;SDS011;7543;53.148;8.234;2023-07-20T10:33:42;2.43;;;1.07;;
14903;SDS011;7543;53.148;8.234;2023-07-20T10:36:11;4.63;;;1.00;;
14903;SDS011;7543;53.148;8.234;2023-07-20T10:38:41;2.10;;;0.90;;
14903;SDS011;7543;53.148;8.234;2023-07-20T10:41:17;1.53;;;0.93;;
14903;SDS011;7543;53.148;8.234;2023-07-20T10:43:46;1.37;;;0.80;;
14903;SDS011;7543;53.148;8.234;2023-07-20T10:46:15;1.83;;;0.80;;
14903;SDS011;7543;53.148;8.234;2023-07-20T10:49:02;2.43;;;0.73;;
14903;SDS011;7543;53.148;8.234;2023-07-20T10:51:31;1.30;;;0.60;;
14903;SDS011;7543;53.148;8.234;2023-07-20T10:54:09;3.10;;;0.68;;
14903;SDS011;7543;53.148;8.234;2023-07-20T11:00:07;1.48;;;0.73;;
14903;SDS011;7543;53.148;8.234;2023-07-20T11:02:43;0.85;;;0.60;;
14903;SDS011;7543;53.148;8.234;2023-07-20T11:08:03;1.60;;;0.60;;
14903;SDS011;7543;53.148;8.234;2023-07-20T11:10:34;1.65;;;0.60;;
14903;SDS011;7543;53.148;8.234;2023-07-20T11:16:02;0.47;;;0.43;;
14903;SDS011;7543;53.148;8.234;2023-07-20T11:18:35;1.23;;;0.70;;
14903;SDS011;7543;53.148;8.234;2023-07-20T11:21:07;1.85;;;0.70;;
14903;SDS011;7543;53.148;8.234;2023-07-20T11:23:38;1.95;;;0.75;;
14903;SDS011;7543;53.148;8.234;2023-07-20T11:26:08;1.65;;;0.50;;
14903;SDS011;7543;53.148;8.234;2023-07-20T11:28:38;1.33;;;0.55;;
14903;SDS011;7543;53.148;8.234;2023-07-20T11:31:06;0.80;;;0.43;;
14903;SDS011;7543;53.148;8.234;2023-07-20T11:33:34;0.60;;;0.50;;
14903;SDS011;7543;53.148;8.234;2023-07-20T11:36:03;1.38;;;0.50;;
14903;SDS011;7543;53.148;8.234;2023-07-20T11:38:32;1.55;;;0.40;;
14903;SDS011;7543;53.148;8.234;2023-07-20T11:41:02;2.22;;;0.90;;
14903;SDS011;7543;53.148;8.234;2023-07-20T11:43:32;2.35;;;0.80;;
14903;SDS011;7543;53.148;8.234;2023-07-20T11:46:00;1.20;;;0.60;;
14903;SDS011;7543;53.148;8.234;2023-07-20T11:48:28;1.55;;;0.70;;
14903;SDS011;7543;53.148;8.234;2023-07-20T11:50:57;2.08;;;0.63;;
14903;SDS011;7543;53.148;8.234;2023-07-20T11:53:26;1.35;;;0.90;;
14903;SDS011;7543;53.148;8.234;2023-07-20T11:55:54;1.58;;;0.90;;
14903;SDS011;7543;53.148;8.234;2023-07-20T11:58:22;1.33;;;0.55;;
14903;SDS011;7543;53.148;8.234;2023-07-20T12:00:52;0.90;;;0.70;;
14903;SDS011;7543;53.148;8.234;2023-07-20T12:03:22;2.23;;;0.80;;
14903;SDS011;7543;53.148;8.234;2023-07-20T12:05:50;2.17;;;0.85;;
14903;SDS011;7543;53.148;8.234;2023-07-20T12:08:19;2.45;;;0.80;;
14903;SDS011;7543;53.148;8.234;2023-07-20T12:10:48;1.70;;;0.80;;
14903;SDS011;7543;53.148;8.234;2023-07-20T12:13:16;0.63;;;0.60;;
14903;SDS011;7543;53.148;8.234;2023-07-20T12:15:45;2.97;;;0.90;;
14903;SDS011;7543;53.148;8.234;2023-07-20T12:18:14;0.95;;;0.75;;
14903;SDS011;7543;53.148;8.234;2023-07-20T12:20:42;1.58;;;0.57;;
14903;SDS011;7543;53.148;8.234;2023-07-20T12:23:11;2.45;;;0.70;;
14903;SDS011;7543;53.148;8.234;2023-07-20T12:25:41;1.17;;;0.60;;
14903;SDS011;7543;53.148;8.234;2023-07-20T12:28:12;0.90;;;0.45;;
14903;SDS011;7543;53.148;8.234;2023-07-20T12:30:41;1.27;;;0.60;;
14903;SDS011;7543;53.148;8.234;2023-07-20T12:33:10;1.73;;;0.57;;
14903;SDS011;7543;53.148;8.234;2023-07-20T12:35:43;1.67;;;0.77;;
14903;SDS011;7543;53.148;8.234;2023-07-20T12:38:11;1.25;;;0.57;;
14903;SDS011;7543;53.148;8.234;2023-07-20T12:40:40;1.33;;;0.80;;
14903;SDS011;7543;53.148;8.234;2023-07-20T12:43:08;3.58;;;0.50;;
14903;SDS011;7543;53.148;8.234;2023-07-20T12:45:36;1.73;;;0.50;;
14903;SDS011;7543;53.148;8.234;2023-07-20T12:48:05;2.78;;;0.88;;
14903;SDS011;7543;53.148;8.234;2023-07-20T12:50:33;1.25;;;0.70;;
14903;SDS011;7543;53.148;8.234;2023-07-20T12:53:03;1.85;;;0.63;;
14903;SDS011;7543;53.148;8.234;2023-07-20T12:55:31;1.88;;;0.90;;
14903;SDS011;7543;53.148;8.234;2023-07-20T12:57:59;4.22;;;0.80;;
14903;SDS011;7543;53.148;8.234;2023-07-20T13:00:28;1.20;;;0.70;;
14903;SDS011;7543;53.148;8.234;2023-07-20T13:02:56;3.05;;;0.63;;
14903;SDS011;7543;53.148;8.234;2023-07-20T13:05:24;2.90;;;0.60;;
14903;SDS011;7543;53.148;8.234;2023-07-20T13:07:53;1.70;;;0.77;;
14903;SDS011;7543;53.148;8.234;2023-07-20T13:10:22;0.93;;;0.60;;
14903;SDS011;7543;53.148;8.234;2023-07-20T13:12:51;3.38;;;1.00;;
14903;SDS011;7543;53.148;8.234;2023-07-20T13:15:19;2.20;;;0.70;;
14903;SDS011;7543;53.148;8.234;2023-07-20T13:17:47;3.28;;;0.80;;
14903;SDS011;7543;53.148;8.234;2023-07-20T13:20:16;2.63;;;0.80;;
14903;SDS011;7543;53.148;8.234;2023-07-20T13:22:45;3.78;;;0.68;;
14903;SDS011;7543;53.148;8.234;2023-07-20T13:25:14;2.55;;;0.85;;
14903;SDS011;7543;53.148;8.234;2023-07-20T13:27:43;1.15;;;0.68;;
14903;SDS011;7543;53.148;8.234;2023-07-20T13:30:12;3.28;;;0.80;;
14903;SDS011;7543;53.148;8.234;2023-07-20T13:32:43;1.63;;;0.68;;
14903;SDS011;7543;53.148;8.234;2023-07-20T13:35:12;1.35;;;0.50;;
14903;SDS011;7543;53.148;8.234;2023-07-20T13:37:40;0.75;;;0.60;;
14903;SDS011;7543;53.148;8.234;2023-07-20T13:40:09;0.77;;;0.52;;
14903;SDS011;7543;53.148;8.234;2023-07-20T13:42:39;1.25;;;0.68;;
14903;SDS011;7543;53.148;8.234;2023-07-20T13:45:09;0.45;;;0.40;;
14903;SDS011;7543;53.148;8.234;2023-07-20T13:47:38;0.88;;;0.65;;
14903;SDS011;7543;53.148;8.234;2023-07-20T13:50:06;1.00;;;0.55;;
14903;SDS011;7543;53.148;8.234;2023-07-20T13:52:35;0.93;;;0.70;;
14903;SDS011;7543;53.148;8.234;2023-07-20T13:55:04;2.80;;;0.80;;
14903;SDS011;7543;53.148;8.234;2023-07-20T13:57:32;1.48;;;0.70;;
14903;SDS011;7543;53.148;8.234;2023-07-20T14:00:00;2.35;;;0.70;;
14903;SDS011;7543;53.148;8.234;2023-07-20T14:02:40;1.48;;;0.73;;
14903;SDS011;7543;53.148;8.234;2023-07-20T14:05:08;1.85;;;0.80;;
14903;SDS011;7543;53.148;8.234;2023-07-20T14:07:37;2.63;;;0.80;;
14903;SDS011;7543;53.148;8.234;2023-07-20T14:10:06;1.98;;;0.63;;
14903;SDS011;7543;53.148;8.234;2023-07-20T14:12:35;1.27;;;0.65;;
14903;SDS011;7543;53.148;8.234;2023-07-20T14:15:04;2.13;;;0.90;;
14903;SDS011;7543;53.148;8.234;2023-07-20T14:17:33;1.73;;;0.90;;
14903;SDS011;7543;53.148;8.234;2023-07-20T14:20:03;1.75;;;0.60;;
14903;SDS011;7543;53.148;8.234;2023-07-20T14:22:32;1.58;;;0.70;;
14903;SDS011;7543;53.148;8.234;2023-07-20T14:25:01;1.30;;;0.73;;
14903;SDS011;7543;53.148;8.234;2023-07-20T14:27:29;1.73;;;0.70;;
14903;SDS011;7543;53.148;8.234;2023-07-20T14:29:57;0.90;;;0.60;;
14903;SDS011;7543;53.148;8.234;2023-07-20T14:32:26;1.73;;;0.80;;
14903;SDS011;7543;53.148;8.234;2023-07-20T14:34:54;1.48;;;0.70;;
14903;SDS011;7543;53.148;8.234;2023-07-20T14:37:24;1.75;;;0.80;;
14903;SDS011;7543;53.148;8.234;2023-07-20T14:39:52;2.35;;;0.70;;
14903;SDS011;7543;53.148;8.234;2023-07-20T14:42:20;1.42;;;0.50;;
14903;SDS011;7543;53.148;8.234;2023-07-20T14:44:48;1.88;;;0.65;;
14903;SDS011;7543;53.148;8.234;2023-07-20T14:47:17;2.20;;;0.70;;
14903;SDS011;7543;53.148;8.234;2023-07-20T14:49:45;1.58;;;0.80;;
14903;SDS011;7543;53.148;8.234;2023-07-20T14:52:15;1.52;;;0.65;;
14903;SDS011;7543;53.148;8.234;2023-07-20T14:54:45;1.33;;;0.65;;
14903;SDS011;7543;53.148;8.234;2023-07-20T14:57:14;1.75;;;0.77;;
14903;SDS011;7543;53.148;8.234;2023-07-20T14:59:43;3.28;;;0.68;;
14903;SDS011;7543;53.148;8.234;2023-07-20T15:02:11;2.05;;;0.90;;
14903;SDS011;7543;53.148;8.234;2023-07-20T15:04:45;0.93;;;0.60;;
14903;SDS011;7543;53.148;8.234;2023-07-20T15:07:13;2.88;;;0.82;;
14903;SDS011;7543;53.148;8.234;2023-07-20T15:09:42;1.33;;;0.70;;
14903;SDS011;7543;53.148;8.234;2023-07-20T15:12:12;1.02;;;0.57;;
14903;SDS011;7543;53.148;8.234;2023-07-20T15:14:41;2.20;;;0.80;;
14903;SDS011;7543;53.148;8.234;2023-07-20T15:17:09;2.33;;;0.73;;
14903;SDS011;7543;53.148;8.234;2023-07-20T15:19:38;1.13;;;0.80;;
14903;SDS011;7543;53.148;8.234;2023-07-20T15:22:07;1.40;;;0.57;;